Time;durP1;ratioP1;P1;durP2;ratioP2;P2;SDS_P1;SDS_P2;PMS_P1;PMS_P2;Temp;Humidity;BMP_temperature;BMP_pressure;BME280_temperature;BME280_humidity;BME280_pressure;Samples;Min_cycle;Max_cycle;Signal;HPM_P1;HPM_P2
2021/11/22 00:01:00;;;;;;;2.63;1.45;;;4.10;99.90;;;;;;5022489;28;20042;-49
2021/11/22 00:03:27;;;;;;;2.83;1.60;;;4.10;99.90;;;;;;5023496;28;20060;-53
2021/11/22 00:05:54;;;;;;;4.15;1.75;;;4.10;99.90;;;;;;5022584;28;20124;-52
2021/11/22 00:08:21;;;;;;;4.93;1.83;;;4.10;99.90;;;;;;5023827;28;20119;-48
2021/11/22 00:10:48;;;;;;;4.20;2.22;;;4.10;99.90;;;;;;5020129;28;20509;-52
2021/11/22 00:13:15;;;;;;;3.03;1.33;;;4.10;99.90;;;;;;5019714;28;20147;-52
2021/11/22 00:15:42;;;;;;;3.35;1.55;;;4.10;99.90;;;;;;5022822;28;20559;-51
2021/11/22 00:18:08;;;;;;;2.50;1.70;;;4.10;99.90;;;;;;5024973;28;20132;-52
2021/11/22 00:20:35;;;;;;;2.55;1.23;;;4.10;99.90;;;;;;5020709;28;20503;-51
2021/11/22 00:23:02;;;;;;;2.88;1.30;;;4.00;99.90;;;;;;5023369;28;20053;-53
2021/11/22 00:25:29;;;;;;;6.45;2.00;;;4.00;99.90;;;;;;5022056;28;20076;-49
2021/11/22 00:27:56;;;;;;;2.40;1.27;;;4.00;99.90;;;;;;5022164;28;20141;-53
2021/11/22 00:30:22;;;;;;;2.10;1.13;;;4.10;99.90;;;;;;5021651;28;20045;-52
2021/11/22 00:32:49;;;;;;;2.75;1.30;;;4.10;99.90;;;;;;5023381;28;20124;-49
2021/11/22 00:35:16;;;;;;;3.95;1.52;;;4.00;99.90;;;;;;5023123;28;20080;-52
2021/11/22 00:37:45;;;;;;;3.10;1.60;;;4.00;99.90;;;;;;5022266;28;20111;-51
2021/11/22 00:40:13;;;;;;;2.97;1.40;;;4.00;99.90;;;;;;5023125;28;20041;-47
2021/11/22 00:42:40;;;;;;;3.28;1.20;;;4.10;99.90;;;;;;5020875;28;20128;-47
2021/11/22 00:45:07;;;;;;;3.65;1.85;;;4.10;99.90;;;;;;5019542;28;20069;-47
2021/11/22 00:47:36;;;;;;;3.92;1.58;;;4.20;99.90;;;;;;5023238;28;20360;-52
2021/11/22 00:50:06;;;;;;;3.17;1.25;;;4.20;99.90;;;;;;5022833;28;20124;-49
2021/11/22 00:52:32;;;;;;;2.92;1.27;;;4.30;99.90;;;;;;5023574;28;20139;-53
2021/11/22 00:54:59;;;;;;;3.10;1.70;;;4.30;99.90;;;;;;5022756;28;20116;-48
2021/11/22 00:57:26;;;;;;;3.35;1.48;;;4.30;99.90;;;;;;5021992;28;20069;-53
2021/11/22 00:59:53;;;;;;;2.63;1.48;;;4.30;99.90;;;;;;5022295;28;20095;-52
2021/11/22 01:02:22;;;;;;;6.57;1.83;;;4.30;99.90;;;;;;5022511;28;20124;-49
2021/11/22 01:04:49;;;;;;;2.80;1.15;;;4.20;99.90;;;;;;5022892;28;20064;-50
2021/11/22 01:07:15;;;;;;;4.88;2.00;;;4.30;99.90;;;;;;5021611;28;20073;-49
2021/11/22 01:09:43;;;;;;;2.20;1.40;;;4.20;99.90;;;;;;5021519;28;20077;-52
2021/11/22 01:12:09;;;;;;;5.00;1.50;;;4.20;99.90;;;;;;5021613;28;20131;-50
2021/11/22 01:14:36;;;;;;;3.00;1.35;;;4.20;99.90;;;;;;5020883;28;20103;-54
2021/11/22 01:17:03;;;;;;;3.85;1.38;;;4.10;99.90;;;;;;5022601;28;20042;-52
2021/11/22 01:19:31;;;;;;;3.33;1.40;;;4.10;99.90;;;;;;5021003;28;20057;-53
2021/11/22 01:21:58;;;;;;;2.78;1.20;;;4.10;99.90;;;;;;5022886;28;20458;-54
2021/11/22 01:24:24;;;;;;;2.20;0.98;;;4.00;99.90;;;;;;5022658;28;20441;-51
2021/11/22 01:26:51;;;;;;;2.58;1.48;;;4.00;99.90;;;;;;5022416;28;20155;-53
2021/11/22 01:29:18;;;;;;;2.10;0.93;;;4.00;99.90;;;;;;5021503;28;20100;-51
2021/11/22 01:31:44;;;;;;;4.28;1.63;;;4.00;99.90;;;;;;5021787;28;20465;-51
2021/11/22 01:34:11;;;;;;;3.25;1.13;;;4.00;99.90;;;;;;5018932;28;20537;-51
2021/11/22 01:36:38;;;;;;;3.90;1.60;;;4.00;99.90;;;;;;5021385;28;20140;-53
2021/11/22 01:39:05;;;;;;;1.67;1.13;;;4.00;99.90;;;;;;5022076;28;20173;-53
2021/11/22 01:41:32;;;;;;;3.80;2.00;;;4.00;99.90;;;;;;5021256;28;20056;-52
2021/11/22 01:43:59;;;;;;;3.25;1.58;;;4.00;99.90;;;;;;5022410;28;20076;-50
2021/11/22 01:46:27;;;;;;;2.42;1.52;;;4.00;99.90;;;;;;5020862;28;20160;-51
2021/11/22 01:48:56;;;;;;;3.65;1.67;;;4.00;99.90;;;;;;5019900;28;20045;-51
2021/11/22 01:51:23;;;;;;;3.72;2.03;;;4.10;99.90;;;;;;5018835;28;20115;-51
2021/11/22 01:53:49;;;;;;;3.47;1.30;;;4.10;99.90;;;;;;5017898;28;20038;-52
2021/11/22 01:56:19;;;;;;;3.38;1.38;;;4.10;99.90;;;;;;5020497;28;20392;-54
2021/11/22 01:58:46;;;;;;;2.72;1.20;;;4.10;99.90;;;;;;5019989;28;20232;-53
2021/11/22 02:01:13;;;;;;;3.13;1.45;;;4.10;99.90;;;;;;5018768;28;20475;-53
2021/11/22 02:03:40;;;;;;;4.75;1.60;;;4.10;99.90;;;;;;5021463;28;20144;-51
2021/11/22 02:06:07;;;;;;;4.00;1.27;;;4.00;99.90;;;;;;5021432;28;20146;-53
2021/11/22 02:08:34;;;;;;;3.30;1.48;;;4.10;99.90;;;;;;5020386;28;20088;-52
2021/11/22 02:11:00;;;;;;;3.67;1.00;;;4.00;99.90;;;;;;5021068;28;20049;-52
2021/11/22 02:13:27;;;;;;;4.57;1.65;;;4.00;99.90;;;;;;5021570;28;20469;-53
2021/11/22 02:15:54;;;;;;;3.17;1.10;;;4.00;99.90;;;;;;5019359;28;20470;-53
2021/11/22 02:18:21;;;;;;;2.80;1.58;;;4.00;99.90;;;;;;5021272;28;20095;-54
2021/11/22 02:20:48;;;;;;;2.72;1.08;;;4.00;99.90;;;;;;5020793;28;20092;-53
2021/11/22 02:23:15;;;;;;;2.40;1.08;;;4.00;99.90;;;;;;5021546;28;20187;-53
2021/11/22 02:25:43;;;;;;;2.15;1.08;;;4.00;99.90;;;;;;5020569;28;20083;-52
2021/11/22 02:28:10;;;;;;;3.22;1.80;;;4.00;99.90;;;;;;5019888;28;20571;-53
2021/11/22 02:30:40;;;;;;;4.63;1.30;;;4.00;99.90;;;;;;5016619;28;20571;-51
2021/11/22 02:33:09;;;;;;;3.63;1.70;;;4.10;99.90;;;;;;5018165;28;20050;-51
2021/11/22 02:35:38;;;;;;;3.75;1.42;;;4.10;99.90;;;;;;5019834;28;20069;-53
2021/11/22 02:38:31;;;;;;;4.85;1.50;;;4.10;99.90;;;;;;5022875;28;20107;-52
2021/11/22 02:40:58;;;;;;;5.65;1.45;;;4.10;99.90;;;;;;5022344;28;20069;-47
2021/11/22 02:43:26;;;;;;;2.72;1.25;;;4.10;99.90;;;;;;5021469;28;20162;-52
2021/11/22 02:45:53;;;;;;;2.33;0.93;;;4.10;99.90;;;;;;5020149;28;20081;-49
2021/11/22 02:48:20;;;;;;;3.20;1.58;;;4.10;99.90;;;;;;5021884;28;20045;-51
2021/11/22 02:50:46;;;;;;;4.43;1.65;;;4.10;99.90;;;;;;5020352;28;20147;-54
2021/11/22 02:53:17;;;;;;;2.15;1.30;;;4.10;99.90;;;;;;5022821;28;20072;-52
2021/11/22 02:55:43;;;;;;;4.13;1.50;;;4.10;99.90;;;;;;5022069;28;20084;-53
2021/11/22 02:58:10;;;;;;;3.13;1.17;;;4.10;99.90;;;;;;5023353;28;20136;-52
2021/11/22 03:00:37;;;;;;;8.20;1.35;;;4.10;99.90;;;;;;5016156;28;20137;-49
2021/11/22 03:03:04;;;;;;;3.88;1.52;;;4.10;99.90;;;;;;5021013;28;20163;-48
2021/11/22 03:05:31;;;;;;;3.50;1.25;;;4.10;99.90;;;;;;5023770;28;20081;-50
2021/11/22 03:07:58;;;;;;;3.88;1.80;;;4.10;99.90;;;;;;5023571;28;20046;-53
2021/11/22 03:10:26;;;;;;;2.40;1.25;;;4.10;99.90;;;;;;5022120;28;20469;-53
2021/11/22 03:12:53;;;;;;;4.68;1.15;;;4.10;99.90;;;;;;5019791;28;20496;-52
2021/11/22 03:15:20;;;;;;;4.05;1.60;;;4.00;99.90;;;;;;5022745;28;20128;-53
2021/11/22 03:17:47;;;;;;;3.33;1.40;;;4.00;99.90;;;;;;5022021;28;20081;-51
2021/11/22 03:20:16;;;;;;;4.40;1.10;;;4.00;99.90;;;;;;5026700;28;20081;-51
2021/11/22 03:22:43;;;;;;;2.72;1.45;;;4.00;99.90;;;;;;5029847;28;20041;-51
2021/11/22 03:25:11;;;;;;;2.60;1.05;;;4.00;99.90;;;;;;5030075;28;20135;-54
2021/11/22 03:27:41;;;;;;;2.80;1.02;;;3.90;99.90;;;;;;5029423;28;20125;-54
2021/11/22 03:30:09;;;;;;;2.92;1.30;;;3.90;99.90;;;;;;5026878;28;20144;-52
2021/11/22 03:32:36;;;;;;;2.67;1.15;;;3.90;99.90;;;;;;5029345;28;20118;-53
2021/11/22 03:35:04;;;;;;;3.15;1.45;;;3.90;99.90;;;;;;5029570;28;20084;-54
2021/11/22 03:37:31;;;;;;;4.50;1.15;;;3.90;99.90;;;;;;5030253;28;20081;-51
2021/11/22 03:39:58;;;;;;;1.75;1.13;;;3.90;99.90;;;;;;5030003;28;20188;-52
2021/11/22 03:42:29;;;;;;;3.88;1.30;;;4.00;99.90;;;;;;5029401;28;20080;-49
2021/11/22 03:44:55;;;;;;;3.83;1.20;;;3.90;99.90;;;;;;5027626;28;20119;-52
2021/11/22 03:47:22;;;;;;;3.15;1.45;;;3.90;99.90;;;;;;5029747;28;20073;-54
2021/11/22 03:49:49;;;;;;;6.65;1.48;;;3.90;99.90;;;;;;5029093;28;20053;-54
2021/11/22 03:52:15;;;;;;;3.63;1.25;;;3.90;99.90;;;;;;5028297;28;20083;-54
2021/11/22 03:54:42;;;;;;;4.85;1.45;;;4.00;99.90;;;;;;5027883;28;20107;-50
2021/11/22 03:57:09;;;;;;;3.75;1.35;;;4.00;99.90;;;;;;5029001;28;20087;-54
2021/11/22 03:59:36;;;;;;;3.63;1.33;;;3.90;99.90;;;;;;5028640;28;20096;-52
2021/11/22 04:02:03;;;;;;;4.15;1.17;;;3.90;99.90;;;;;;5028577;28;20073;-54
2021/11/22 04:04:30;;;;;;;3.08;1.33;;;3.90;99.90;;;;;;5028786;28;20050;-54
2021/11/22 04:06:57;;;;;;;4.95;1.42;;;3.80;99.90;;;;;;5029328;28;20041;-51
2021/11/22 04:09:24;;;;;;;5.50;1.45;;;3.90;99.90;;;;;;5029032;28;20941;-53
2021/11/22 04:11:51;;;;;;;2.15;1.00;;;3.90;99.90;;;;;;5028860;28;20104;-53
2021/11/22 04:14:18;;;;;;;3.03;1.30;;;3.90;99.90;;;;;;5027387;28;20077;-51
2021/11/22 04:16:45;;;;;;;3.08;1.02;;;3.90;99.90;;;;;;5028871;28;20084;-52
2021/11/22 04:19:12;;;;;;;2.95;1.42;;;3.90;99.90;;;;;;5027254;28;20129;-54
2021/11/22 04:21:38;;;;;;;2.35;1.02;;;3.80;99.90;;;;;;5028700;28;20076;-53
2021/11/22 04:24:05;;;;;;;3.67;0.93;;;3.80;99.90;;;;;;5028654;28;20049;-51
2021/11/22 04:26:32;;;;;;;3.78;1.10;;;3.80;99.90;;;;;;5028290;28;20076;-54
2021/11/22 04:28:59;;;;;;;1.95;1.10;;;3.80;99.90;;;;;;5028990;28;20080;-53
2021/11/22 04:31:26;;;;;;;2.78;1.23;;;3.80;99.90;;;;;;5026806;28;20487;-53
2021/11/22 04:33:53;;;;;;;4.80;0.90;;;3.80;99.90;;;;;;5027375;28;20128;-53
2021/11/22 04:36:19;;;;;;;2.65;1.27;;;3.80;99.90;;;;;;5027306;28;20136;-54
2021/11/22 04:38:46;;;;;;;3.33;1.15;;;3.80;99.90;;;;;;5028478;28;20045;-53
2021/11/22 04:41:13;;;;;;;3.13;1.23;;;3.80;99.90;;;;;;5026958;28;20077;-53
2021/11/22 04:43:40;;;;;;;2.50;1.08;;;3.80;99.90;;;;;;5028548;28;20385;-54
2021/11/22 04:46:07;;;;;;;4.60;1.15;;;3.90;99.90;;;;;;5025645;28;20131;-52
2021/11/22 04:48:33;;;;;;;5.07;1.17;;;4.00;99.90;;;;;;5026489;28;20056;-52
2021/11/22 04:51:00;;;;;;;3.22;1.02;;;4.00;99.90;;;;;;5026968;28;20701;-52
2021/11/22 04:53:27;;;;;;;5.28;1.60;;;4.00;99.90;;;;;;5028089;28;20107;-59
2021/11/22 04:55:54;;;;;;;2.53;1.10;;;4.00;99.90;;;;;;5028259;28;20120;-51
2021/11/22 04:58:20;;;;;;;2.88;1.02;;;4.00;99.90;;;;;;5027567;28;20053;-51
2021/11/22 05:00:47;;;;;;;3.10;1.20;;;4.00;99.90;;;;;;5024977;28;20128;-55
2021/11/22 05:03:14;;;;;;;3.35;1.20;;;4.00;99.90;;;;;;5028348;28;20052;-53
2021/11/22 05:05:41;;;;;;;3.25;1.08;;;4.00;99.90;;;;;;5028163;28;20080;-51
2021/11/22 05:08:10;;;;;;;3.25;1.00;;;4.00;99.90;;;;;;5028102;28;20167;-50
2021/11/22 05:10:38;;;;;;;2.88;1.08;;;4.10;99.90;;;;;;5027591;28;20080;-52
2021/11/22 05:13:05;;;;;;;2.50;1.20;;;4.00;99.90;;;;;;5026454;28;20080;-50
2021/11/22 05:15:33;;;;;;;2.55;0.90;;;4.10;99.90;;;;;;5026611;28;20157;-52
2021/11/22 05:18:00;;;;;;;3.20;0.98;;;4.00;99.90;;;;;;5026132;28;20076;-51
2021/11/22 05:20:29;;;;;;;1.98;0.90;;;4.00;99.90;;;;;;5027557;28;20093;-54
2021/11/22 05:22:56;;;;;;;2.95;0.90;;;3.90;99.90;;;;;;5027637;28;20536;-54
2021/11/22 05:25:23;;;;;;;2.75;0.82;;;3.90;99.90;;;;;;5027501;28;20126;-52
2021/11/22 05:27:50;;;;;;;3.75;1.20;;;3.90;99.90;;;;;;5026028;28;20099;-52
2021/11/22 05:30:18;;;;;;;4.22;1.67;;;4.00;99.90;;;;;;5025291;28;20091;-54
2021/11/22 05:32:47;;;;;;;3.25;1.33;;;3.90;99.90;;;;;;5027326;28;20121;-51
2021/11/22 05:35:14;;;;;;;2.25;0.90;;;4.00;99.90;;;;;;5027655;28;20121;-50
2021/11/22 05:37:41;;;;;;;3.33;1.30;;;4.00;99.90;;;;;;5027172;28;20664;-53
2021/11/22 05:40:08;;;;;;;2.20;1.02;;;3.90;99.90;;;;;;5026891;28;20134;-52
2021/11/22 05:42:35;;;;;;;2.03;1.15;;;3.90;99.90;;;;;;5024745;28;20092;-54
2021/11/22 05:45:04;;;;;;;2.45;1.23;;;3.90;99.90;;;;;;5025747;28;20116;-52
2021/11/22 05:47:30;;;;;;;3.03;1.00;;;3.90;99.90;;;;;;5026283;28;20334;-52
2021/11/22 05:50:04;;;;;;;1.95;0.73;;;3.80;99.90;;;;;;5005153;28;20485;-53
2021/11/22 05:52:31;;;;;;;3.83;1.00;;;3.90;99.90;;;;;;5007536;28;20109;-51
2021/11/22 05:54:58;;;;;;;2.40;0.70;;;3.80;99.90;;;;;;5023534;28;20084;-53
2021/11/22 05:57:25;;;;;;;3.58;0.90;;;3.80;99.90;;;;;;5022854;28;20134;-52
2021/11/22 05:59:52;;;;;;;3.13;1.10;;;3.80;99.90;;;;;;5021331;28;20546;-49
2021/11/22 06:02:19;;;;;;;3.45;1.00;;;3.70;99.90;;;;;;5021640;28;20049;-50
2021/11/22 06:04:46;;;;;;;2.20;1.00;;;3.70;99.90;;;;;;5017171;28;20053;-54
2021/11/22 06:07:13;;;;;;;2.88;1.08;;;3.80;99.90;;;;;;5019796;28;20114;-50
2021/11/22 06:09:39;;;;;;;2.90;1.30;;;3.80;99.90;;;;;;5019379;28;20165;-49
2021/11/22 06:12:06;;;;;;;2.60;1.58;;;3.80;99.90;;;;;;5019719;28;20056;-49
2021/11/22 06:14:33;;;;;;;4.47;1.73;;;3.70;99.90;;;;;;5023251;28;20087;-51
2021/11/22 06:17:01;;;;;;;5.20;1.25;;;3.80;99.90;;;;;;5023720;28;20132;-49
2021/11/22 06:19:29;;;;;;;2.35;0.98;;;3.70;99.90;;;;;;5023820;28;20064;-49
2021/11/22 06:21:56;;;;;;;2.30;0.80;;;3.80;99.90;;;;;;5023989;28;20476;-52
2021/11/22 06:24:24;;;;;;;1.52;0.68;;;3.80;99.90;;;;;;5022050;28;20460;-50
2021/11/22 06:26:53;;;;;;;3.20;0.93;;;3.80;99.90;;;;;;5021103;28;20922;-49
2021/11/22 06:29:21;;;;;;;3.30;1.13;;;3.70;99.90;;;;;;5019396;28;20263;-51
2021/11/22 06:31:48;;;;;;;3.67;0.80;;;3.80;99.90;;;;;;5016269;28;20618;-53
2021/11/22 06:34:15;;;;;;;3.88;1.10;;;3.80;99.90;;;;;;5018156;28;20126;-51
2021/11/22 06:36:42;;;;;;;4.43;1.08;;;3.80;99.90;;;;;;5018391;28;20500;-51
2021/11/22 06:39:08;;;;;;;4.15;1.60;;;3.80;99.90;;;;;;5017530;28;20160;-49
2021/11/22 06:41:35;;;;;;;3.47;1.10;;;3.80;99.90;;;;;;5016003;28;20441;-51
2021/11/22 06:44:02;;;;;;;3.45;1.10;;;3.80;99.90;;;;;;5017967;28;20136;-48
2021/11/22 06:46:29;;;;;;;2.83;0.85;;;3.80;99.90;;;;;;5016853;28;20147;-54
2021/11/22 06:48:56;;;;;;;1.77;0.88;;;3.90;99.90;;;;;;5017828;28;20048;-50
2021/11/22 06:51:25;;;;;;;2.65;0.82;;;3.80;99.90;;;;;;5015664;28;20057;-49
2021/11/22 06:53:52;;;;;;;2.83;0.88;;;3.80;99.90;;;;;;5016741;28;20108;-51
2021/11/22 06:56:18;;;;;;;2.80;1.00;;;3.90;99.90;;;;;;5017197;28;20081;-50
2021/11/22 06:58:45;;;;;;;5.30;1.20;;;3.80;99.90;;;;;;4994817;28;20133;-53
2021/11/22 07:01:12;;;;;;;2.42;1.10;;;3.90;99.90;;;;;;5014825;28;20046;-52
2021/11/22 07:03:39;;;;;;;2.60;0.90;;;3.90;99.90;;;;;;5018374;28;20119;-53
2021/11/22 07:06:08;;;;;;;3.03;0.82;;;3.90;99.90;;;;;;5017784;28;20137;-54
2021/11/22 07:08:35;;;;;;;3.38;1.10;;;3.80;99.90;;;;;;5017338;28;20111;-52
2021/11/22 07:11:02;;;;;;;1.77;0.70;;;3.80;99.90;;;;;;5013776;28;20159;-48
2021/11/22 07:13:31;;;;;;;2.50;0.98;;;3.80;99.90;;;;;;5016754;28;20057;-53
2021/11/22 07:15:57;;;;;;;3.47;1.20;;;3.70;99.90;;;;;;5016785;28;20053;-52
2021/11/22 07:18:24;;;;;;;3.85;1.00;;;3.80;99.90;;;;;;5017096;28;20481;-53
2021/11/22 07:20:51;;;;;;;3.83;1.20;;;3.70;99.90;;;;;;5013353;28;20145;-53
2021/11/22 07:23:22;;;;;;;1.73;0.70;;;3.70;99.90;;;;;;5018098;28;20115;-53
2021/11/22 07:25:50;;;;;;;2.70;1.13;;;3.70;99.90;;;;;;5017380;28;20735;-52
2021/11/22 07:28:17;;;;;;;2.22;0.65;;;3.70;99.90;;;;;;5018215;28;20137;-53
2021/11/22 07:30:47;;;;;;;3.58;1.00;;;3.70;99.90;;;;;;5017645;28;20080;-51
2021/11/22 07:33:14;;;;;;;2.60;0.85;;;3.70;99.90;;;;;;5017910;28;20064;-50
2021/11/22 07:35:40;;;;;;;3.17;1.25;;;3.70;99.90;;;;;;5016954;28;20081;-53
2021/11/22 07:38:08;;;;;;;1.80;0.82;;;3.70;99.90;;;;;;5017125;28;20049;-57
2021/11/22 07:40:35;;;;;;;1.88;0.70;;;3.70;99.90;;;;;;5018116;28;20142;-54
2021/11/22 07:43:02;;;;;;;3.83;0.90;;;3.70;99.90;;;;;;5017936;28;20104;-53
2021/11/22 07:45:29;;;;;;;1.67;0.90;;;3.70;99.90;;;;;;5016115;28;20131;-53
2021/11/22 07:47:55;;;;;;;1.55;0.80;;;3.70;99.90;;;;;;5017740;28;20076;-52
2021/11/22 07:50:23;;;;;;;2.80;0.70;;;3.70;99.90;;;;;;5017361;28;20080;-49
2021/11/22 07:52:50;;;;;;;3.40;1.00;;;3.70;99.90;;;;;;5017027;28;20132;-48
2021/11/22 07:55:17;;;;;;;2.03;0.88;;;3.80;99.90;;;;;;5016756;28;20516;-51
2021/11/22 07:57:44;;;;;;;4.03;1.33;;;3.80;99.90;;;;;;5017585;28;20053;-51
2021/11/22 08:00:11;;;;;;;2.22;1.00;;;3.80;99.90;;;;;;5015429;28;20400;-52
2021/11/22 08:02:39;;;;;;;3.42;1.48;;;3.80;99.90;;;;;;5017082;28;20053;-54
2021/11/22 08:05:06;;;;;;;2.20;1.00;;;3.90;99.90;;;;;;5017339;28;20582;-53
2021/11/22 08:07:36;;;;;;;2.22;0.95;;;3.90;99.90;;;;;;5020670;28;20246;-52
2021/11/22 08:10:15;;;;;;;4.70;1.33;;;4.00;99.90;;;;;;5020452;28;20548;-49
2021/11/22 08:12:42;;;;;;;1.42;0.60;;;4.00;99.90;;;;;;5019425;28;20107;-50
2021/11/22 08:15:10;;;;;;;1.85;0.98;;;4.10;99.90;;;;;;5018009;28;20709;-51
2021/11/22 08:17:42;;;;;;;3.45;0.80;;;4.10;99.90;;;;;;5021113;28;20050;-52
2021/11/22 08:20:13;;;;;;;1.15;0.63;;;4.10;99.90;;;;;;5020594;28;21860;-52
2021/11/22 08:22:40;;;;;;;1.73;0.60;;;4.20;99.90;;;;;;5019430;28;20129;-53
2021/11/22 08:25:07;;;;;;;3.83;1.25;;;4.20;99.90;;;;;;5021601;28;20132;-53
2021/11/22 08:27:34;;;;;;;3.60;1.20;;;4.20;99.90;;;;;;5021150;28;20127;-49
2021/11/22 08:30:04;;;;;;;3.72;1.20;;;4.20;99.90;;;;;;5019287;28;20076;-49
2021/11/22 08:32:31;;;;;;;2.17;0.93;;;4.30;99.90;;;;;;5019901;28;20395;-50
2021/11/22 08:34:57;;;;;;;4.70;1.33;;;4.40;99.90;;;;;;5020316;28;20454;-47
2021/11/22 08:37:24;;;;;;;3.60;0.88;;;4.40;99.90;;;;;;5021150;28;20118;-51
2021/11/22 08:39:51;;;;;;;2.67;1.02;;;4.40;99.90;;;;;;5020554;28;20064;-52
2021/11/22 08:42:18;;;;;;;3.58;1.20;;;4.50;99.90;;;;;;5020311;28;20552;-52
2021/11/22 08:44:45;;;;;;;2.67;0.70;;;4.50;99.90;;;;;;5019625;28;20136;-52
2021/11/22 08:47:13;;;;;;;4.85;1.17;;;4.60;99.90;;;;;;5020389;28;20157;-51
2021/11/22 08:49:42;;;;;;;5.38;0.70;;;4.60;99.90;;;;;;5020579;28;20458;-50
2021/11/22 08:52:10;;;;;;;3.92;1.00;;;4.70;99.90;;;;;;5020933;28;20088;-52
2021/11/22 08:54:37;;;;;;;2.97;0.95;;;4.80;99.90;;;;;;5019075;28;20183;-53
2021/11/22 08:57:06;;;;;;;2.22;0.95;;;4.80;99.90;;;;;;5019665;28;20073;-52
2021/11/22 08:59:33;;;;;;;2.00;1.23;;;4.90;99.90;;;;;;5019515;28;20057;-53
2021/11/22 09:02:00;;;;;;;2.20;1.05;;;5.00;99.90;;;;;;5020430;28;20524;-51
2021/11/22 09:04:27;;;;;;;5.25;1.60;;;5.00;99.90;;;;;;5020743;28;20067;-52
2021/11/22 09:06:57;;;;;;;2.50;1.20;;;5.10;99.90;;;;;;5020517;28;20056;-53
2021/11/22 09:09:23;;;;;;;4.10;1.20;;;5.10;99.90;;;;;;5019786;28;20128;-48
2021/11/22 09:11:50;;;;;;;3.97;1.42;;;5.20;99.90;;;;;;5019158;28;20093;-52
2021/11/22 09:14:17;;;;;;;2.55;1.40;;;5.30;99.90;;;;;;5018113;28;20140;-51
2021/11/22 09:16:44;;;;;;;4.13;1.10;;;5.40;99.90;;;;;;5019576;28;20061;-49
2021/11/22 09:19:12;;;;;;;2.67;1.13;;;5.40;99.90;;;;;;5017662;28;20881;-51
2021/11/22 09:21:39;;;;;;;4.03;1.35;;;5.50;99.90;;;;;;5019651;28;20566;-49
2021/11/22 09:24:06;;;;;;;6.88;1.75;;;5.60;99.90;;;;;;5019860;28;20053;-50
2021/11/22 09:26:33;;;;;;;2.55;1.00;;;5.60;99.90;;;;;;5019717;28;20084;-49
2021/11/22 09:29:00;;;;;;;2.63;1.15;;;5.70;99.90;;;;;;5020529;28;20545;-48
2021/11/22 09:31:26;;;;;;;4.00;1.00;;;5.70;99.90;;;;;;5018674;28;20780;-52
2021/11/22 09:33:54;;;;;;;1.70;0.80;;;5.80;99.90;;;;;;5020029;28;20050;-50
2021/11/22 09:36:21;;;;;;;2.33;0.90;;;5.80;99.90;;;;;;5019703;28;20572;-50
2021/11/22 09:38:48;;;;;;;3.35;1.00;;;5.90;99.90;;;;;;5019072;28;20145;-53
2021/11/22 09:41:15;;;;;;;3.45;1.10;;;5.90;99.90;;;;;;5001001;28;20081;-51
2021/11/22 09:43:45;;;;;;;2.60;0.90;;;6.00;99.90;;;;;;5015827;28;20125;-48
2021/11/22 09:46:12;;;;;;;5.75;1.20;;;6.10;99.90;;;;;;5017501;28;20807;-51
2021/11/22 09:48:40;;;;;;;3.85;0.82;;;6.20;99.90;;;;;;5019285;28;20049;-49
2021/11/22 09:51:09;;;;;;;3.53;1.17;;;6.20;99.90;;;;;;5017596;28;20692;-51
2021/11/22 09:53:36;;;;;;;4.63;1.50;;;6.30;99.90;;;;;;5019233;28;20053;-50
2021/11/22 09:56:03;;;;;;;7.00;1.67;;;6.40;99.90;;;;;;5019369;28;20077;-52
2021/11/22 09:58:30;;;;;;;6.40;1.70;;;6.50;99.90;;;;;;5019279;28;20160;-53
2021/11/22 10:01:02;;;;;;;5.45;1.40;;;6.50;99.90;;;;;;5018118;28;20497;-50
2021/11/22 10:03:30;;;;;;;4.75;2.05;;;6.60;99.90;;;;;;5017086;28;20061;-51
2021/11/22 10:06:01;;;;;;;2.97;1.02;;;6.60;99.90;;;;;;5018671;28;20061;-50
2021/11/22 10:08:28;;;;;;;5.03;1.52;;;6.60;99.90;;;;;;5019504;28;20425;-54
2021/11/22 10:10:57;;;;;;;3.03;1.10;;;6.70;99.90;;;;;;5018846;28;20136;-53
2021/11/22 10:13:32;;;;;;;3.42;1.13;;;6.80;99.90;;;;;;5019224;28;20053;-53
2021/11/22 10:16:08;;;;;;;6.65;1.35;;;6.80;99.90;;;;;;5018528;28;20300;-54
2021/11/22 10:18:43;;;;;;;6.30;1.95;;;6.90;99.90;;;;;;5019639;28;20199;-53
2021/11/22 10:21:12;;;;;;;5.03;1.70;;;7.00;99.90;;;;;;5019028;28;20538;-50
2021/11/22 10:23:40;;;;;;;5.03;1.88;;;7.00;99.90;;;;;;5017746;28;20511;-55
2021/11/22 10:26:10;;;;;;;2.70;1.55;;;7.00;99.90;;;;;;5019053;28;20084;-52
2021/11/22 10:28:38;;;;;;;4.68;2.03;;;7.10;99.90;;;;;;5019473;28;20136;-55
2021/11/22 10:31:07;;;;;;;4.18;1.50;;;7.20;99.90;;;;;;5017917;28;20123;-53
2021/11/22 10:33:37;;;;;;;3.03;1.40;;;7.20;99.90;;;;;;5017412;28;20052;-62
2021/11/22 10:36:10;;;;;;;4.57;1.40;;;7.30;99.90;;;;;;5018795;28;20053;-55
2021/11/22 10:38:38;;;;;;;5.63;2.15;;;7.40;99.90;;;;;;5018242;28;20456;-56
2021/11/22 10:41:09;;;;;;;5.47;1.75;;;7.50;99.90;;;;;;5016565;28;20156;-55
2021/11/22 10:43:39;;;;;;;2.92;1.30;;;7.50;99.90;;;;;;5019229;28;20045;-54
2021/11/22 10:46:08;;;;;;;4.90;1.20;;;7.50;99.90;;;;;;5017417;28;20448;-55
2021/11/22 10:48:36;;;;;;;2.85;1.10;;;7.60;99.90;;;;;;5016981;28;20128;-58
2021/11/22 10:51:21;;;;;;;4.22;1.20;;;7.60;99.90;;;;;;5018692;28;20982;-55
2021/11/22 10:53:53;;;;;;;3.65;1.50;;;7.60;99.90;;;;;;5018759;28;20565;-54
2021/11/22 10:56:25;;;;;;;7.20;1.30;;;7.70;99.90;;;;;;5018466;28;20531;-55
2021/11/22 10:59:20;;;;;;;3.58;1.63;;;7.70;99.90;;;;;;5018065;28;20092;-55
2021/11/22 11:01:51;;;;;;;3.05;1.48;;;7.90;99.90;;;;;;5017527;28;20060;-54
2021/11/22 11:04:37;;;;;;;7.30;2.10;;;7.90;99.90;;;;;;5017864;28;20056;-53
2021/11/22 11:07:05;;;;;;;7.25;1.58;;;8.10;99.70;;;;;;5017303;28;20053;-55
2021/11/22 11:09:41;;;;;;;8.43;2.00;;;8.10;99.40;;;;;;5018262;28;20061;-52
2021/11/22 11:12:11;;;;;;;5.90;1.50;;;8.10;99.60;;;;;;5016086;28;20276;-54
2021/11/22 11:14:40;;;;;;;4.40;1.15;;;8.20;99.40;;;;;;5016617;28;20060;-55
2021/11/22 11:17:24;;;;;;;4.60;1.52;;;8.30;99.70;;;;;;5018675;28;20542;-55
2021/11/22 11:19:54;;;;;;;3.97;1.30;;;8.40;99.30;;;;;;5018262;28;20140;-53
2021/11/22 11:22:24;;;;;;;3.47;1.20;;;8.40;99.50;;;;;;5018576;28;20056;-55
2021/11/22 11:24:51;;;;;;;5.57;1.73;;;8.40;99.30;;;;;;5018103;28;20077;-54
2021/11/22 11:27:39;;;;;;;4.10;1.25;;;8.50;99.20;;;;;;5018472;28;20057;-52
2021/11/22 11:30:07;;;;;;;4.57;1.88;;;8.60;99.30;;;;;;5017014;28;20567;-52
2021/11/22 11:32:34;;;;;;;8.00;1.52;;;8.60;99.00;;;;;;5018259;28;20140;-55
2021/11/22 11:35:02;;;;;;;5.47;1.60;;;8.70;99.10;;;;;;5017611;28;20102;-55
2021/11/22 11:37:55;;;;;;;6.35;1.65;;;8.70;99.00;;;;;;5017293;28;20103;-52
2021/11/22 11:40:27;;;;;;;4.15;1.33;;;8.80;98.80;;;;;;5010706;28;20140;-53
2021/11/22 11:43:12;;;;;;;7.30;1.52;;;8.90;98.90;;;;;;5020838;28;20049;-54
2021/11/22 11:45:54;;;;;;;7.25;1.98;;;8.90;98.80;;;;;;5020822;28;20126;-51
2021/11/22 11:48:39;;;;;;;6.22;1.75;;;9.00;98.30;;;;;;5021493;28;20480;-55
2021/11/22 11:51:14;;;;;;;5.00;1.75;;;8.90;98.00;;;;;;5020296;28;20057;-53
2021/11/22 11:54:02;;;;;;;6.65;1.92;;;8.90;97.80;;;;;;5022299;28;20142;-54
2021/11/22 11:56:45;;;;;;;5.43;1.70;;;9.00;97.60;;;;;;5022222;28;20136;-53
2021/11/22 11:59:15;;;;;;;4.50;2.47;;;9.30;97.10;;;;;;5021631;28;20198;-50
2021/11/22 12:01:57;;;;;;;4.78;1.52;;;9.40;97.50;;;;;;5021232;28;20566;-55
2021/11/22 12:04:24;;;;;;;8.82;1.85;;;9.60;96.80;;;;;;5022204;28;20221;-55
2021/11/22 12:06:51;;;;;;;4.68;1.65;;;9.90;96.10;;;;;;5021703;28;20202;-54
2021/11/22 12:09:41;;;;;;;5.13;1.77;;;9.90;96.00;;;;;;5021382;28;20526;-56
2021/11/22 12:12:07;;;;;;;3.35;1.35;;;10.00;95.60;;;;;;5019636;28;20057;-53
2021/11/22 12:14:52;;;;;;;5.35;1.77;;;10.20;95.50;;;;;;5020848;28;20145;-53
2021/11/22 12:17:36;;;;;;;4.78;1.65;;;10.20;94.90;;;;;;5021569;28;20405;-55
2021/11/22 12:20:27;;;;;;;7.10;1.95;;;10.30;95.00;;;;;;5021099;28;20072;-54
2021/11/22 12:22:55;;;;;;;7.70;1.50;;;10.40;94.90;;;;;;5017994;28;20103;-55
2021/11/22 12:25:37;;;;;;;3.30;1.50;;;10.50;94.90;;;;;;5021900;28;20087;-55
2021/11/22 12:28:11;;;;;;;2.70;1.00;;;10.60;94.50;;;;;;5021296;28;20497;-54
2021/11/22 12:30:42;;;;;;;4.80;1.45;;;10.90;94.40;;;;;;5022576;28;20127;-55
2021/11/22 12:33:24;;;;;;;5.25;2.15;;;11.00;93.60;;;;;;5023457;28;20266;-56
2021/11/22 12:35:59;;;;;;;4.95;2.00;;;10.80;93.30;;;;;;5024418;28;20455;-54
2021/11/22 12:38:31;;;;;;;5.90;1.75;;;10.80;94.10;;;;;;5024761;28;20532;-55
2021/11/22 12:41:24;;;;;;;2.90;1.33;;;10.90;93.40;;;;;;5023638;28;20436;-53
2021/11/22 12:43:59;;;;;;;4.68;1.58;;;10.90;93.30;;;;;;5024008;28;20112;-54
2021/11/22 12:46:35;;;;;;;4.90;1.45;;;11.00;93.10;;;;;;5022495;28;20572;-56
2021/11/22 12:49:22;;;;;;;4.82;1.65;;;11.10;93.10;;;;;;5024204;28;20107;-53
2021/11/22 12:51:51;;;;;;;4.50;1.42;;;11.10;93.20;;;;;;5023825;28;20097;-54
2021/11/22 12:54:19;;;;;;;5.43;2.15;;;10.80;93.40;;;;;;5021892;28;20100;-56
2021/11/22 12:56:46;;;;;;;4.65;2.03;;;10.70;93.50;;;;;;5023510;28;20050;-54
2021/11/22 12:59:25;;;;;;;5.55;1.55;;;10.50;93.90;;;;;;5022234;28;20093;-51
2021/11/22 13:01:53;;;;;;;4.72;2.15;;;10.70;93.40;;;;;;5023217;28;20092;-55
2021/11/22 13:04:39;;;;;;;7.25;1.95;;;10.80;93.40;;;;;;5023650;28;20061;-55